createdAt,value
2023-05-21T00:01:39.251Z,7.13
2023-05-21T00:04:07.802Z,7.97
2023-05-21T00:06:37.436Z,7.27
2023-05-21T00:09:05.707Z,7.20
2023-05-21T00:11:32.949Z,6.57
2023-05-21T00:13:59.867Z,7.10
2023-05-21T00:16:26.631Z,9.27
2023-05-21T00:18:54.578Z,6.87
2023-05-21T00:21:26.105Z,7.10
2023-05-21T00:23:56.818Z,7.87
2023-05-21T00:26:24.180Z,6.70
2023-05-21T00:28:53.988Z,7.50
2023-05-21T00:31:20.820Z,6.60
2023-05-21T00:33:47.510Z,7.50
2023-05-21T00:36:14.597Z,6.87
2023-05-21T00:38:45.988Z,7.17
2023-05-21T00:41:13.317Z,7.37
2023-05-21T00:43:40.758Z,7.10
2023-05-21T00:46:13.628Z,6.70
2023-05-21T00:48:40.328Z,7.00
2023-05-21T00:51:07.096Z,7.73
2023-05-21T00:53:35.577Z,7.17
2023-05-21T00:56:03.099Z,6.87
2023-05-21T00:58:31.135Z,7.07
2023-05-21T01:00:58.639Z,6.87
2023-05-21T01:03:26.178Z,7.03
2023-05-21T01:05:59.859Z,7.20
2023-05-21T01:08:28.888Z,7.10
2023-05-21T01:10:56.876Z,7.10
2023-05-21T01:13:24.709Z,7.70
2023-05-21T01:15:52.204Z,6.63
2023-05-21T01:18:20.115Z,7.33
2023-05-21T01:20:50.243Z,8.07
2023-05-21T01:23:17.874Z,7.20
2023-05-21T01:25:45.482Z,7.10
2023-05-21T01:28:12.559Z,6.90
2023-05-21T01:30:41.508Z,6.63
2023-05-21T01:33:17.320Z,7.23
2023-05-21T01:36:06.773Z,7.10
2023-05-21T01:38:46.055Z,7.60
2023-05-21T01:41:14.142Z,6.63
2023-05-21T01:43:45.586Z,7.23
2023-05-21T01:46:17.560Z,7.53
2023-05-21T01:48:44.589Z,7.33
2023-05-21T01:51:12.041Z,7.70
2023-05-21T01:53:41.492Z,7.70
2023-05-21T01:56:08.302Z,7.33
2023-05-21T01:58:34.859Z,7.40
2023-05-21T02:01:02.762Z,7.40
2023-05-21T02:03:31.332Z,7.23
2023-05-21T02:05:58.062Z,7.07
2023-05-21T02:08:25.578Z,6.40
2023-05-21T02:10:52.303Z,6.43
2023-05-21T02:13:25.757Z,7.33
2023-05-21T02:15:54.621Z,6.37
2023-05-21T02:18:21.904Z,7.37
2023-05-21T02:20:48.665Z,7.30
2023-05-21T02:23:15.617Z,7.03
2023-05-21T02:25:42.569Z,6.67
2023-05-21T02:28:09.103Z,6.47
2023-05-21T02:30:36.545Z,7.63
2023-05-21T02:33:03.214Z,6.93
2023-05-21T02:35:29.876Z,7.83
2023-05-21T02:37:59.454Z,7.20
2023-05-21T02:40:26.312Z,7.13
2023-05-21T02:42:52.834Z,7.20
2023-05-21T02:45:20.985Z,7.37
2023-05-21T02:47:47.829Z,6.93
2023-05-21T02:50:17.488Z,9.63
2023-05-21T02:52:49.834Z,7.43
2023-05-21T02:55:16.478Z,6.90
2023-05-21T02:57:42.949Z,7.10
2023-05-21T03:00:10.577Z,7.00
2023-05-21T03:02:38.723Z,7.30
2023-05-21T03:05:06.004Z,7.47
2023-05-21T03:07:33.440Z,6.80
2023-05-21T03:10:00.548Z,6.93
2023-05-21T03:12:27.148Z,7.63
2023-05-21T03:14:53.736Z,6.80
2023-05-21T03:17:20.741Z,7.47
2023-05-21T03:19:49.088Z,6.90
2023-05-21T03:22:15.971Z,7.13
2023-05-21T03:24:42.466Z,7.63
2023-05-21T03:27:09.246Z,7.77
2023-05-21T03:29:36.211Z,7.33
2023-05-21T03:32:03.663Z,7.13
2023-05-21T03:34:34.411Z,7.17
2023-05-21T03:37:01.651Z,7.47
2023-05-21T03:39:29.083Z,6.90
2023-05-21T03:41:56.543Z,7.33
2023-05-21T03:44:44.397Z,7.47
2023-05-21T03:47:29.928Z,6.67
2023-05-21T03:49:57.478Z,7.33
2023-05-21T03:52:23.972Z,7.50
2023-05-21T03:54:50.670Z,7.60
2023-05-21T03:57:17.246Z,7.67
2023-05-21T03:59:45.888Z,7.97
2023-05-21T04:02:12.493Z,7.10
2023-05-21T04:04:39.113Z,7.60
2023-05-21T04:07:05.894Z,6.83
2023-05-21T04:09:32.938Z,6.90
2023-05-21T04:12:00.407Z,7.17
2023-05-21T04:14:26.933Z,7.20
2023-05-21T04:16:53.432Z,6.37
2023-05-21T04:19:21.242Z,6.97
2023-05-21T04:21:49.342Z,7.17
2023-05-21T04:24:16.391Z,6.90
2023-05-21T04:26:50.916Z,6.87
2023-05-21T04:29:21.135Z,7.43
2023-05-21T04:31:49.500Z,6.70
2023-05-21T04:34:20.073Z,6.70
2023-05-21T04:36:47.190Z,6.53
2023-05-21T04:39:14.864Z,7.40
2023-05-21T04:41:41.528Z,6.90
2023-05-21T04:44:08.650Z,6.23
2023-05-21T04:46:35.957Z,7.30
2023-05-21T04:49:05.387Z,7.20
2023-05-21T04:51:32.183Z,7.13
2023-05-21T04:53:58.675Z,7.47
2023-05-21T04:56:26.423Z,7.37
2023-05-21T04:58:58.966Z,6.67
2023-05-21T05:01:27.387Z,6.93
2023-05-21T05:03:54.072Z,6.97
2023-05-21T05:06:21.298Z,6.73
2023-05-21T05:08:48.178Z,7.30
2023-05-21T05:11:16.107Z,7.27
2023-05-21T05:13:42.992Z,7.33
2023-05-21T05:16:10.125Z,7.40
2023-05-21T05:18:37.046Z,7.07
2023-05-21T05:21:03.829Z,7.10
2023-05-21T05:23:30.589Z,7.47
2023-05-21T05:25:57.702Z,7.00
2023-05-21T05:28:30.845Z,8.40
2023-05-21T05:31:01.409Z,6.63
2023-05-21T05:33:36.017Z,7.40
2023-05-21T05:36:05.515Z,6.93
2023-05-21T05:38:35.513Z,7.23
2023-05-21T05:41:02.472Z,6.93
2023-05-21T05:43:32.417Z,7.87
2023-05-21T05:46:02.876Z,7.07
2023-05-21T05:48:29.542Z,7.47
2023-05-21T05:50:59.062Z,7.37
2023-05-21T05:53:26.471Z,7.37
2023-05-21T05:55:53.802Z,6.20
2023-05-21T05:58:20.616Z,6.73
2023-05-21T06:00:55.262Z,7.67
2023-05-21T06:03:22.125Z,7.43
2023-05-21T06:05:52.485Z,6.80
2023-05-21T06:08:41.106Z,7.23
2023-05-21T06:11:07.869Z,7.10
2023-05-21T06:13:34.421Z,6.10
2023-05-21T06:16:03.823Z,6.67
2023-05-21T06:18:30.428Z,6.77
2023-05-21T06:20:56.988Z,6.83
2023-05-21T06:23:26.531Z,7.33
2023-05-21T06:25:53.129Z,7.93
2023-05-21T06:28:20.116Z,7.30
2023-05-21T06:30:48.394Z,7.57
2023-05-21T06:33:16.117Z,7.30
2023-05-21T06:35:42.901Z,6.53
2023-05-21T06:38:11.948Z,6.43
2023-05-21T06:40:38.472Z,6.97
2023-05-21T06:43:05.758Z,7.17
2023-05-21T06:45:38.447Z,6.87
2023-05-21T06:48:26.298Z,7.27
2023-05-21T06:50:53.175Z,7.60
2023-05-21T06:53:19.755Z,6.80
2023-05-21T06:55:46.512Z,7.23
2023-05-21T06:58:17.673Z,7.20
2023-05-21T07:00:44.282Z,6.53
2023-05-21T07:03:11.113Z,7.10
2023-05-21T07:05:38.026Z,6.77
2023-05-21T07:08:10.624Z,6.43
2023-05-21T07:10:38.459Z,6.47
2023-05-21T07:13:05.021Z,6.33
2023-05-21T07:15:31.648Z,6.90
2023-05-21T07:17:58.725Z,6.83
2023-05-21T07:20:25.542Z,6.50
2023-05-21T07:22:54.831Z,7.23
2023-05-21T07:25:24.018Z,7.20
2023-05-21T07:27:50.681Z,7.03
2023-05-21T07:30:17.316Z,6.67
2023-05-21T07:32:43.890Z,6.47
2023-05-21T07:35:10.542Z,6.87
2023-05-21T07:37:37.199Z,6.03
2023-05-21T07:40:06.312Z,7.00
2023-05-21T07:42:32.975Z,6.80
2023-05-21T07:44:59.845Z,6.20
2023-05-21T07:47:27.540Z,6.10
2023-05-21T07:49:54.230Z,6.43
2023-05-21T07:52:24.197Z,6.63
2023-05-21T07:54:51.145Z,6.93
2023-05-21T07:57:18.036Z,6.93
2023-05-21T07:59:55.046Z,6.33
2023-05-21T08:02:21.821Z,7.27
2023-05-21T08:04:48.533Z,6.10
2023-05-21T08:07:17.013Z,6.53
2023-05-21T08:09:43.806Z,6.60
2023-05-21T08:12:14.286Z,6.43
2023-05-21T08:14:41.450Z,6.50
2023-05-21T08:17:11.372Z,6.40
2023-05-21T08:19:38.275Z,6.90
2023-05-21T08:22:08.752Z,5.90
2023-05-21T08:24:37.621Z,6.20
2023-05-21T08:27:05.208Z,6.83
2023-05-21T08:29:33.061Z,6.70
2023-05-21T08:31:59.766Z,6.30
2023-05-21T08:34:26.812Z,6.53
2023-05-21T08:37:13.590Z,6.47
2023-05-21T08:40:04.110Z,7.23
2023-05-21T08:42:45.634Z,7.27
2023-05-21T08:45:22.055Z,6.77
2023-05-21T08:47:56.396Z,10.57
2023-05-21T08:50:28.152Z,9.07
2023-05-21T08:52:59.067Z,7.40
2023-05-21T08:55:27.709Z,9.57
2023-05-21T08:57:57.252Z,10.87
2023-05-21T09:00:25.307Z,25.27
2023-05-21T09:02:56.919Z,151.63
2023-05-21T09:05:27.028Z,105.13
2023-05-21T09:08:07.042Z,95.23
2023-05-21T09:10:50.762Z,192.57
2023-05-21T09:13:20.211Z,206.53
2023-05-21T09:15:48.824Z,162.43
2023-05-21T09:18:18.813Z,101.27
2023-05-21T09:21:30.263Z,61.50
2023-05-21T09:24:06.356Z,52.83
2023-05-21T09:26:33.175Z,41.67
2023-05-21T09:29:09.533Z,33.83
2023-05-21T09:31:36.732Z,31.77
2023-05-21T09:34:06.064Z,33.53
2023-05-21T09:36:34.690Z,30.60
2023-05-21T09:39:01.315Z,29.47
2023-05-21T09:41:33.689Z,25.13
2023-05-21T09:44:01.642Z,18.70
2023-05-21T09:46:38.438Z,14.30
2023-05-21T09:49:06.100Z,15.00
2023-05-21T09:51:33.098Z,16.13
2023-05-21T09:53:59.742Z,17.33
2023-05-21T09:56:29.504Z,15.57
2023-05-21T09:58:58.389Z,16.47
2023-05-21T10:01:25.285Z,14.70
2023-05-21T10:03:59.189Z,12.13
2023-05-21T10:06:27.975Z,12.33
2023-05-21T10:09:05.779Z,13.13
2023-05-21T10:11:34.582Z,10.70
2023-05-21T10:14:07.634Z,12.57
